Anderson, AK

5:34 AM AKDT on September 17, 2014 (GMT -0800)
Nenana Municipal | Change Station
CLOSE
Current Station
Airport
Location: Nenana,
Elevation: 361 ft
Nearby Weather Stations

Elev 361 ft 64.55 °N, 149.07 °W | Updated 41 minutes ago

Clear
Clear
45 °F
Feels Like 40 °F
N
9
Wind Variable Wind from East

Today
High -- | Low -- °F
--% Chance of Precip.
Yesterday
High -- | Low -- °F
Precip. -- in
7:25 AM 8:14 PM
Waning Crescent, 36% visible
Pressure 29.49 in
Visibility 10.0 miles
Clouds Clear
Windchill 40 °F
Dew Point 37 °F
Humidity 74%
Rainfall 0.00 in
Snow Depth 0 in , 4 in , 53 in
UV 0 out of 12
Pollen Not available.
Air Quality Not available.
Flu Activity Not available.
METAR PANN 171253Z AUTO 08008KT 10SM CLR 07/03 A2946 RMK AO2 SLP984 T00720028 TSNO

More Conditions Fewer Conditions

Pressure 29.49 in
Visibility 10.0 miles
Clouds Clear
Windchill 40 °F
Dew Point 37 °F
Humidity 74%
Rainfall 0.00 in
Snow Depth 0 in , 4 in , 53 in
UV 0 out of 12
Pollen Not available.
Air Quality Not available.
Flu Activity Not available.
METAR PANN 171253Z AUTO 08008KT 10SM CLR 07/03 A2946 RMK AO2 SLP984 T00720028 TSNO

More Conditions Fewer Conditions

10-Day Weather Forecast

Almanac

Astronomy

Sep. 17, 2014 Rise Set
Actual Time 7:25 AM AKDT 8:14 PM AKDT
Civil Twilight 6:36 AM AKDT 9:03 PM AKDT
Nautical Twilight 5:35 AM AKDT 10:03 PM AKDT
Astronomical Twilight 4:21 AM AKDT 11:15 PM AKDT
Moon No Moon Rise 5:59 PM AKDT
Length of Visible Light 14h 26m
Length of Day
12h 48m
Tomorrow will be 6m 28s shorter.
Waning Crescent, 36% of the Moon is Illuminated
Today
Waning Crescent
Sep 24
New
Oct 1
First Quarter
Oct 8
Full
Oct 15
Last Quarter

Today's Extremes

State Highs State Lows

Community

WunderPhotos

Upload Photos

1,754,029 photos uploaded!

Nearby

Snow Depth

Station Depth Elevation
Fort Yukon 0 in 430 ft
Rocky Point 4 in 500 ft
Nuka Glacier 53 in 1250 ft
MF Bradley River 4 in 2300 ft
Upper Chena 1 in 2850 ft

Earthquake Activity

City Distance Mag. Time & Date
No recent earthquake activity has been reported nearby.
Minimum magnitude displayed is 2.5.

Coastal Water Temperatures

Place Temperature
No Stations Reporting

Nearby Weather Stations